createdAt,value
2023-02-04T00:00:17.845Z,0
2023-02-04T00:01:17.853Z,0
2023-02-04T00:02:17.866Z,0
2023-02-04T00:03:17.854Z,0
2023-02-04T00:04:17.841Z,0
2023-02-04T00:05:17.841Z,0
2023-02-04T00:06:17.855Z,0
2023-02-04T00:07:17.835Z,0
2023-02-04T00:08:17.844Z,0
2023-02-04T00:09:17.835Z,0
2023-02-04T00:10:17.965Z,0
2023-02-04T00:11:17.854Z,0
2023-02-04T00:12:17.844Z,0
2023-02-04T00:13:17.890Z,0
2023-02-04T00:14:17.845Z,0
2023-02-04T00:15:17.874Z,0
2023-02-04T00:16:18.100Z,0
2023-02-04T00:17:17.860Z,0
2023-02-04T00:18:17.862Z,0
2023-02-04T00:19:17.862Z,0
2023-02-04T00:20:17.854Z,0
2023-02-04T00:21:17.875Z,0
2023-02-04T00:22:17.855Z,0
2023-02-04T00:23:17.856Z,0
2023-02-04T00:24:17.856Z,0
2023-02-04T00:25:17.852Z,0
2023-02-04T00:26:17.893Z,0
2023-02-04T00:27:17.898Z,0
2023-02-04T00:28:18.026Z,0
2023-02-04T00:29:17.908Z,0
2023-02-04T00:30:17.860Z,0
2023-02-04T00:31:17.995Z,0
2023-02-04T00:32:18.001Z,0
2023-02-04T00:33:17.861Z,0
2023-02-04T00:34:17.874Z,0
2023-02-04T00:35:17.855Z,0
2023-02-04T00:36:17.862Z,0
2023-02-04T00:37:17.859Z,0
2023-02-04T00:38:17.850Z,0
2023-02-04T00:39:17.865Z,0
2023-02-04T00:40:17.944Z,0
2023-02-04T00:41:17.856Z,0
2023-02-04T00:42:17.859Z,0
2023-02-04T00:43:17.860Z,0
2023-02-04T00:44:17.857Z,0
2023-02-04T00:45:17.858Z,0
2023-02-04T00:46:17.874Z,0
2023-02-04T00:47:17.856Z,0
2023-02-04T00:48:17.874Z,0
2023-02-04T00:49:17.856Z,0
2023-02-04T00:50:17.861Z,0
2023-02-04T00:51:17.876Z,0
2023-02-04T00:52:17.843Z,0
2023-02-04T00:53:17.859Z,0
2023-02-04T00:54:17.873Z,0
2023-02-04T00:55:17.862Z,0
2023-02-04T00:56:17.865Z,0
2023-02-04T00:57:17.849Z,0
2023-02-04T00:58:17.841Z,0
2023-02-04T00:59:17.840Z,0
2023-02-04T01:00:17.841Z,0
2023-02-04T01:01:17.904Z,0
2023-02-04T01:02:18.628Z,0
2023-02-04T01:03:17.846Z,0
2023-02-04T01:04:17.837Z,0
2023-02-04T01:05:17.852Z,0
2023-02-04T01:06:17.859Z,0
2023-02-04T01:07:17.924Z,0
2023-02-04T01:08:17.855Z,0
2023-02-04T01:09:17.843Z,0
2023-02-04T01:10:17.850Z,0
2023-02-04T01:11:17.861Z,0
2023-02-04T01:12:17.858Z,0
2023-02-04T01:13:17.839Z,0
2023-02-04T01:14:17.858Z,0
2023-02-04T01:15:17.840Z,0
2023-02-04T01:16:17.906Z,0
2023-02-04T01:17:17.844Z,0
2023-02-04T01:18:17.852Z,0
2023-02-04T01:19:17.841Z,0
2023-02-04T01:20:17.852Z,0
2023-02-04T01:21:17.875Z,0
2023-02-04T01:22:17.854Z,0
2023-02-04T01:23:17.856Z,0
2023-02-04T01:24:17.866Z,0
2023-02-04T01:25:17.870Z,0
2023-02-04T01:26:17.886Z,0
2023-02-04T01:27:17.864Z,0
2023-02-04T01:28:17.882Z,0
2023-02-04T01:29:17.876Z,0
2023-02-04T01:30:17.854Z,0
2023-02-04T01:31:18.282Z,0
2023-02-04T01:32:17.870Z,0
2023-02-04T01:33:17.867Z,0
2023-02-04T01:34:17.859Z,0
2023-02-04T01:35:17.852Z,0
2023-02-04T01:36:17.881Z,0
2023-02-04T01:37:17.927Z,0
2023-02-04T01:38:17.864Z,0
2023-02-04T01:39:17.864Z,0
2023-02-04T01:40:17.861Z,0
2023-02-04T01:41:17.879Z,0
2023-02-04T01:42:17.866Z,0
2023-02-04T01:43:17.870Z,0
2023-02-04T01:44:17.918Z,0
2023-02-04T01:45:17.871Z,0
2023-02-04T01:46:17.993Z,0
2023-02-04T01:47:17.862Z,0
2023-02-04T01:48:17.868Z,0
2023-02-04T01:49:17.870Z,0
2023-02-04T01:50:17.868Z,0
2023-02-04T01:51:17.877Z,0
2023-02-04T01:52:17.870Z,0
2023-02-04T01:53:17.863Z,0
2023-02-04T01:54:17.868Z,0
2023-02-04T01:55:17.844Z,0
2023-02-04T01:56:17.864Z,0
2023-02-04T01:57:17.859Z,0
2023-02-04T01:58:17.870Z,0
2023-02-04T01:59:17.859Z,0
2023-02-04T02:00:17.855Z,0
2023-02-04T02:01:17.926Z,0
2023-02-04T02:02:17.913Z,0
2023-02-04T02:03:17.875Z,0
2023-02-04T02:04:17.848Z,0
2023-02-04T02:05:17.850Z,0
2023-02-04T02:06:17.858Z,0
2023-02-04T02:07:17.854Z,0
2023-02-04T02:08:17.844Z,0
2023-02-04T02:09:17.848Z,0
2023-02-04T02:10:17.840Z,0
2023-02-04T02:11:17.864Z,0
2023-02-04T02:12:17.841Z,0
2023-02-04T02:13:17.846Z,0
2023-02-04T02:14:17.840Z,0
2023-02-04T02:15:17.848Z,0
2023-02-04T02:16:17.865Z,0
2023-02-04T02:17:17.851Z,0
2023-02-04T02:18:17.840Z,0
2023-02-04T02:19:17.855Z,0
2023-02-04T02:20:17.842Z,0
2023-02-04T02:21:17.871Z,0
2023-02-04T02:22:17.846Z,0
2023-02-04T02:23:17.844Z,0
2023-02-04T02:24:17.844Z,0
2023-02-04T02:25:17.853Z,0
2023-02-04T02:26:17.862Z,0
2023-02-04T02:27:17.843Z,0
2023-02-04T02:28:17.903Z,0
2023-02-04T02:29:17.845Z,0
2023-02-04T02:30:17.938Z,0
2023-02-04T02:31:17.961Z,0
2023-02-04T02:32:17.867Z,0
2023-02-04T02:33:17.868Z,0
2023-02-04T02:34:17.840Z,0
2023-02-04T02:35:17.862Z,0
2023-02-04T02:36:17.889Z,0
2023-02-04T02:37:17.870Z,0
2023-02-04T02:38:17.875Z,0
2023-02-04T02:39:17.869Z,0
2023-02-04T02:40:17.872Z,0
2023-02-04T02:41:17.897Z,0
2023-02-04T02:42:17.883Z,0
2023-02-04T02:43:17.873Z,0
2023-02-04T02:44:17.848Z,0
2023-02-04T02:45:17.871Z,0
2023-02-04T02:46:17.972Z,0
2023-02-04T02:47:17.872Z,0
2023-02-04T02:48:17.860Z,0
2023-02-04T02:49:17.872Z,0
2023-02-04T02:50:17.868Z,0
2023-02-04T02:51:17.873Z,0
2023-02-04T02:52:17.866Z,0
2023-02-04T02:53:17.867Z,0
2023-02-04T02:54:17.867Z,0
2023-02-04T02:55:17.887Z,0
2023-02-04T02:56:17.873Z,0
2023-02-04T02:57:17.867Z,0
2023-02-04T02:58:17.862Z,0
2023-02-04T02:59:17.863Z,0
2023-02-04T03:00:17.850Z,0
2023-02-04T03:01:17.889Z,0
2023-02-04T03:02:17.882Z,0
2023-02-04T03:03:17.901Z,0
2023-02-04T03:04:17.864Z,0
2023-02-04T03:05:17.859Z,0
2023-02-04T03:06:17.893Z,0
2023-02-04T03:07:17.859Z,0
2023-02-04T03:08:17.865Z,0
2023-02-04T03:09:17.915Z,0
2023-02-04T03:10:17.865Z,0
2023-02-04T03:11:17.859Z,0
2023-02-04T03:12:17.860Z,0
2023-02-04T03:13:17.839Z,0
2023-02-04T03:14:17.842Z,0
2023-02-04T03:15:17.840Z,0
2023-02-04T03:16:17.864Z,0
2023-02-04T03:17:17.838Z,0
2023-02-04T03:18:17.850Z,0
2023-02-04T03:19:17.841Z,0
2023-02-04T03:20:17.844Z,0
2023-02-04T03:21:17.869Z,0
2023-02-04T03:22:17.843Z,0
2023-02-04T03:23:17.850Z,0
2023-02-04T03:24:17.845Z,0
2023-02-04T03:25:17.847Z,0
2023-02-04T03:26:17.866Z,0
2023-02-04T03:27:17.843Z,0
2023-02-04T03:28:18.009Z,0
2023-02-04T03:29:17.848Z,0
2023-02-04T03:30:17.854Z,0
2023-02-04T03:31:18.033Z,0
2023-02-04T03:32:17.848Z,0
2023-02-04T03:33:17.862Z,0
2023-02-04T03:34:17.938Z,0
2023-02-04T03:35:17.849Z,0
2023-02-04T03:36:17.879Z,0
2023-02-04T03:37:17.858Z,0
2023-02-04T03:38:19.848Z,0
2023-02-04T03:39:17.859Z,0
2023-02-04T03:40:17.898Z,0
2023-02-04T03:41:17.881Z,0
2023-02-04T03:42:17.863Z,0
2023-02-04T03:43:17.868Z,0
2023-02-04T03:44:17.865Z,0
2023-02-04T03:45:17.862Z,0
2023-02-04T03:46:18.018Z,0
2023-02-04T03:47:17.863Z,0
2023-02-04T03:48:17.863Z,0
2023-02-04T03:49:17.866Z,0
2023-02-04T03:50:17.872Z,0
2023-02-04T03:51:17.875Z,0
2023-02-04T03:52:17.930Z,0
2023-02-04T03:53:17.867Z,0
2023-02-04T03:54:17.868Z,0
2023-02-04T03:55:17.861Z,0
2023-02-04T03:56:17.892Z,0
2023-02-04T03:57:17.849Z,0
2023-02-04T03:58:17.853Z,0
2023-02-04T03:59:17.868Z,0
2023-02-04T04:00:17.861Z,0
2023-02-04T04:01:17.964Z,0
2023-02-04T04:02:17.869Z,0
2023-02-04T04:03:17.863Z,0
2023-02-04T04:04:17.866Z,0
2023-02-04T04:05:17.872Z,0
2023-02-04T04:06:17.880Z,0
2023-02-04T04:07:17.867Z,0
2023-02-04T04:08:17.855Z,0
2023-02-04T04:09:17.860Z,0
2023-02-04T04:10:17.868Z,0
2023-02-04T04:11:17.889Z,0
2023-02-04T04:12:17.869Z,0
2023-02-04T04:13:17.861Z,0
2023-02-04T04:14:17.861Z,0
2023-02-04T04:15:17.890Z,0
2023-02-04T04:16:17.892Z,0
2023-02-04T04:17:17.866Z,0
2023-02-04T04:18:17.847Z,0
2023-02-04T04:19:17.851Z,0
2023-02-04T04:20:17.857Z,0
2023-02-04T04:21:18.050Z,0
2023-02-04T04:22:17.848Z,0
2023-02-04T04:23:17.847Z,0
2023-02-04T04:24:17.845Z,0
2023-02-04T04:25:17.851Z,0
2023-02-04T04:26:17.862Z,0
2023-02-04T04:27:17.855Z,0
2023-02-04T04:28:17.970Z,0
2023-02-04T04:29:17.851Z,0
2023-02-04T04:30:17.847Z,0
2023-02-04T04:31:18.003Z,0
2023-02-04T04:32:17.843Z,0
2023-02-04T04:33:17.845Z,0
2023-02-04T04:34:17.839Z,0
2023-02-04T04:35:17.849Z,0
2023-02-04T04:36:17.857Z,0
2023-02-04T04:37:17.837Z,0
2023-02-04T04:38:17.848Z,0
2023-02-04T04:39:17.839Z,0
2023-02-04T04:40:17.841Z,0
2023-02-04T04:41:17.853Z,0
2023-02-04T04:42:17.840Z,0
2023-02-04T04:43:17.835Z,0
2023-02-04T04:44:17.847Z,0
2023-02-04T04:45:17.839Z,0
2023-02-04T04:46:17.883Z,0
2023-02-04T04:47:17.834Z,0
2023-02-04T04:48:17.854Z,0
2023-02-04T04:49:17.836Z,0
2023-02-04T04:50:17.865Z,0
2023-02-04T04:51:17.864Z,0
2023-02-04T04:52:17.839Z,0
2023-02-04T04:53:17.861Z,0
2023-02-04T04:54:17.858Z,0
2023-02-04T04:55:17.863Z,0
2023-02-04T04:56:17.862Z,0
2023-02-04T04:57:17.862Z,0
2023-02-04T04:58:17.857Z,0
2023-02-04T04:59:17.858Z,0
2023-02-04T05:00:17.869Z,0
2023-02-04T05:01:17.983Z,0
2023-02-04T05:02:17.850Z,0
2023-02-04T05:03:17.861Z,0
2023-02-04T05:04:17.843Z,0
2023-02-04T05:05:17.863Z,0
2023-02-04T05:06:17.904Z,0
2023-02-04T05:07:17.858Z,0
2023-02-04T05:08:17.856Z,0
2023-02-04T05:09:17.865Z,0
2023-02-04T05:10:17.835Z,0
2023-02-04T05:11:17.877Z,0
2023-02-04T05:12:17.862Z,0
2023-02-04T05:13:17.850Z,0
2023-02-04T05:14:17.865Z,0
2023-02-04T05:15:17.852Z,0
2023-02-04T05:16:17.914Z,0
2023-02-04T05:17:17.866Z,0
2023-02-04T05:18:17.863Z,0
2023-02-04T05:19:17.885Z,0
2023-02-04T05:20:17.844Z,0
2023-02-04T05:21:17.880Z,0
2023-02-04T05:22:17.855Z,0
2023-02-04T05:23:17.866Z,0
2023-02-04T05:24:17.864Z,0
2023-02-04T05:25:17.862Z,0
2023-02-04T05:26:29.433Z,0
2023-02-04T05:27:17.857Z,0
2023-02-04T05:28:17.939Z,0
2023-02-04T05:29:17.870Z,0
2023-02-04T05:30:17.844Z,0
2023-02-04T05:31:18.030Z,0
2023-02-04T05:32:17.844Z,0
2023-02-04T05:33:17.842Z,0
2023-02-04T05:34:17.846Z,0
2023-02-04T05:35:17.839Z,0
2023-02-04T05:36:17.926Z,0
2023-02-04T05:37:17.840Z,0
2023-02-04T05:38:17.849Z,0
2023-02-04T05:39:17.841Z,0
2023-02-04T05:40:17.846Z,0
2023-02-04T05:41:17.860Z,0
2023-02-04T05:42:17.838Z,0
2023-02-04T05:43:17.846Z,0
2023-02-04T05:44:17.841Z,0
2023-02-04T05:45:17.844Z,0
2023-02-04T05:46:17.858Z,0
2023-02-04T05:47:17.845Z,0
2023-02-04T05:48:17.838Z,0
2023-02-04T05:49:17.844Z,0
2023-02-04T05:50:17.895Z,0
2023-02-04T05:51:17.854Z,0
2023-02-04T05:52:17.851Z,0
2023-02-04T05:53:17.845Z,0
2023-02-04T05:54:17.846Z,0
2023-02-04T05:55:17.844Z,0
2023-02-04T05:56:17.854Z,0
2023-02-04T05:57:17.836Z,0
2023-02-04T05:58:17.847Z,0
2023-02-04T05:59:17.852Z,0
2023-02-04T06:00:17.844Z,0
2023-02-04T06:01:17.892Z,0
2023-02-04T06:02:17.841Z,0
2023-02-04T06:03:17.912Z,0
2023-02-04T06:04:17.961Z,0
2023-02-04T06:05:17.853Z,0
2023-02-04T06:06:17.903Z,0
2023-02-04T06:07:17.858Z,0
2023-02-04T06:08:17.861Z,0
2023-02-04T06:09:17.859Z,0
2023-02-04T06:10:17.853Z,0
2023-02-04T06:11:17.873Z,0
2023-02-04T06:12:17.860Z,0
2023-02-04T06:13:17.861Z,0
2023-02-04T06:14:17.845Z,0
2023-02-04T06:15:17.866Z,0
2023-02-04T06:16:17.878Z,0
2023-02-04T06:17:17.851Z,0
2023-02-04T06:18:17.860Z,0
2023-02-04T06:19:17.877Z,0
2023-02-04T06:20:17.849Z,0
2023-02-04T06:21:17.883Z,0
2023-02-04T06:22:17.865Z,0.01
2023-02-04T06:23:17.862Z,0.01
2023-02-04T06:24:17.848Z,0.01
2023-02-04T06:25:17.849Z,0.01
2023-02-04T06:26:17.870Z,0.01
2023-02-04T06:27:17.859Z,0.01
2023-02-04T06:28:17.887Z,0.01
2023-02-04T06:29:17.861Z,0.01
2023-02-04T06:30:17.856Z,0.01
2023-02-04T06:31:17.990Z,0.01
2023-02-04T06:32:17.879Z,0.01
2023-02-04T06:33:17.857Z,0.01
2023-02-04T06:34:17.855Z,0.01
2023-02-04T06:35:17.872Z,0.01
2023-02-04T06:36:17.875Z,0.01
2023-02-04T06:37:17.863Z,0.01
2023-02-04T06:38:17.860Z,0.01
2023-02-04T06:39:17.857Z,0.01
2023-02-04T06:40:17.863Z,0.01
2023-02-04T06:41:17.877Z,0.01
2023-02-04T06:42:17.840Z,0.01
2023-02-04T06:43:17.860Z,0.01
2023-02-04T06:44:17.857Z,0.01
2023-02-04T06:45:17.844Z,0.01
2023-02-04T06:46:17.893Z,0.02
2023-02-04T06:47:17.840Z,0.02
2023-02-04T06:48:17.837Z,0.02
2023-02-04T06:49:17.843Z,0.02
2023-02-04T06:50:17.853Z,0.03
2023-02-04T06:51:17.853Z,0.03
2023-02-04T06:52:17.841Z,0.03
2023-02-04T06:53:17.834Z,0.04
2023-02-04T06:54:17.844Z,0.04
2023-02-04T06:55:17.839Z,0.05
2023-02-04T06:56:17.857Z,0.07
2023-02-04T06:57:17.836Z,0.09
2023-02-04T06:58:17.846Z,0.1
2023-02-04T06:59:17.838Z,0.12
2023-02-04T07:00:17.846Z,0.13
2023-02-04T07:01:17.900Z,0.15
2023-02-04T07:02:17.857Z,0.16
2023-02-04T07:03:17.853Z,0.15
2023-02-04T07:04:17.840Z,0.16
2023-02-04T07:05:17.841Z,0.17
2023-02-04T07:06:17.867Z,0.19
2023-02-04T07:07:17.843Z,0.19
2023-02-04T07:08:17.838Z,0.19
2023-02-04T07:09:17.845Z,0.19
2023-02-04T07:10:17.866Z,0.2
2023-02-04T07:11:17.855Z,0.21
2023-02-04T07:12:17.866Z,0.23
2023-02-04T07:13:17.871Z,0.24
2023-02-04T07:14:17.853Z,0.24
2023-02-04T07:15:17.870Z,0.25
2023-02-04T07:16:17.901Z,0.24
2023-02-04T07:17:17.837Z,0.45
2023-02-04T07:18:17.866Z,0.76
2023-02-04T07:19:19.608Z,0.28
2023-02-04T07:20:17.851Z,0.28
2023-02-04T07:21:17.916Z,0.68
2023-02-04T07:22:17.860Z,0.8
2023-02-04T07:23:17.863Z,0.73
2023-02-04T07:24:17.875Z,0.66
2023-02-04T07:25:17.921Z,0.94
2023-02-04T07:26:17.879Z,0.81
2023-02-04T07:27:17.858Z,1.02
2023-02-04T07:28:17.918Z,0.62
2023-02-04T07:29:24.944Z,0.55
2023-02-04T07:30:17.856Z,0.55
2023-02-04T07:31:17.985Z,0.44
2023-02-04T07:32:17.865Z,0.42
2023-02-04T07:33:17.857Z,0.4
2023-02-04T07:34:17.870Z,0.4
2023-02-04T07:35:17.859Z,0.4
2023-02-04T07:36:17.874Z,0.4
2023-02-04T07:37:17.853Z,0.41
2023-02-04T07:38:17.843Z,0.41
2023-02-04T07:39:17.854Z,0.42
2023-02-04T07:40:17.850Z,0.42
2023-02-04T07:41:17.873Z,0.46
2023-02-04T07:42:17.860Z,0.45
2023-02-04T07:43:17.854Z,0.44
2023-02-04T07:44:17.852Z,0.47
2023-02-04T07:45:17.863Z,0.53
2023-02-04T07:46:17.888Z,0.52
2023-02-04T07:47:17.853Z,0.56
2023-02-04T07:48:17.852Z,0.53
2023-02-04T07:49:17.838Z,0.53
2023-02-04T07:50:17.835Z,0.56
2023-02-04T07:51:17.867Z,0.56
2023-02-04T07:52:17.843Z,0.56
2023-02-04T07:53:17.833Z,0.55
2023-02-04T07:54:17.834Z,0.64
2023-02-04T07:55:17.830Z,0.61
2023-02-04T07:56:17.852Z,0.58
2023-02-04T07:57:20.205Z,0.58
2023-02-04T07:58:17.836Z,0.62
2023-02-04T07:59:17.831Z,0.6
2023-02-04T08:00:17.836Z,0.59
2023-02-04T08:01:17.908Z,0.57
2023-02-04T08:02:17.830Z,0.57
2023-02-04T08:03:17.835Z,0.55
2023-02-04T08:04:17.828Z,0.57
2023-02-04T08:05:17.830Z,0.65
2023-02-04T08:06:17.838Z,0.67
2023-02-04T08:07:17.834Z,0.67
2023-02-04T08:08:17.864Z,0.67
2023-02-04T08:09:17.831Z,0.51
2023-02-04T08:10:17.964Z,0.51
2023-02-04T08:11:17.848Z,0.57
2023-02-04T08:12:17.822Z,0.73
2023-02-04T08:13:17.822Z,0.78
2023-02-04T08:14:17.830Z,0.77
2023-02-04T08:15:17.823Z,0.73
2023-02-04T08:16:17.965Z,0.72
2023-02-04T08:17:17.821Z,0.77
2023-02-04T08:18:17.847Z,0.77
2023-02-04T08:19:17.822Z,0.77
2023-02-04T08:20:17.832Z,0.65
2023-02-04T08:21:19.389Z,0.64
2023-02-04T08:22:17.846Z,0.7
2023-02-04T08:23:17.843Z,0.67
2023-02-04T08:24:17.842Z,0.7
2023-02-04T08:25:17.846Z,0.59
2023-02-04T08:26:17.861Z,0.6
2023-02-04T08:27:17.844Z,0.49
2023-02-04T08:28:17.909Z,0.43
2023-02-04T08:29:17.836Z,0.47
2023-02-04T08:30:17.826Z,0.47
2023-02-04T08:31:18.036Z,0.53
2023-02-04T08:32:17.836Z,0.57
2023-02-04T08:33:17.846Z,0.48
2023-02-04T08:34:17.826Z,0.45
2023-02-04T08:35:17.841Z,0.57
2023-02-04T08:36:17.852Z,0.65
2023-02-04T08:37:17.823Z,0.65
2023-02-04T08:38:17.843Z,0.92
2023-02-04T08:39:17.846Z,0.94
2023-02-04T08:40:19.621Z,0.94
2023-02-04T08:41:17.854Z,1.05
2023-02-04T08:42:17.842Z,1.11
2023-02-04T08:43:17.834Z,1.1
2023-02-04T08:44:17.837Z,1.15
2023-02-04T08:45:17.853Z,1.15
2023-02-04T08:46:17.888Z,1.22
2023-02-04T08:47:17.849Z,1.36
2023-02-04T08:48:17.831Z,1.36
2023-02-04T08:49:17.849Z,1.4
2023-02-04T08:50:17.844Z,1.4
2023-02-04T08:51:17.869Z,1.35
2023-02-04T08:52:17.852Z,1.32
2023-02-04T08:53:17.938Z,1.31
2023-02-04T08:54:17.861Z,1.23
2023-02-04T08:55:17.842Z,1.23
2023-02-04T08:56:17.881Z,1.23
2023-02-04T08:57:17.868Z,1.17
2023-02-04T08:58:17.866Z,1.13
2023-02-04T08:59:17.862Z,1.14
2023-02-04T09:00:17.881Z,1.14
2023-02-04T09:01:17.888Z,1.24
2023-02-04T09:02:17.863Z,1.27
2023-02-04T09:03:17.850Z,1.39
2023-02-04T09:04:17.846Z,1.51
2023-02-04T09:05:17.860Z,1.6
2023-02-04T09:06:17.867Z,1.64
2023-02-04T09:07:17.868Z,1.74
2023-02-04T09:08:17.853Z,0.22
2023-02-04T09:09:17.853Z,0.22
2023-02-04T09:10:17.885Z,0.22
2023-02-04T09:11:17.862Z,0.19
2023-02-04T09:12:17.849Z,0.45
2023-02-04T09:13:17.853Z,1.8
2023-02-04T09:14:17.850Z,1.71
2023-02-04T09:15:17.859Z,1.58
2023-02-04T09:16:17.920Z,1.35
2023-02-04T09:17:17.861Z,1.15
2023-02-04T09:18:17.856Z,1.15
2023-02-04T09:19:17.855Z,1.1
2023-02-04T09:20:17.860Z,1.1
2023-02-04T09:21:17.872Z,1.34
2023-02-04T09:22:17.857Z,1.29
2023-02-04T09:23:17.853Z,1.24
2023-02-04T09:24:17.859Z,1.23
2023-02-04T09:25:17.859Z,1.22
2023-02-04T09:26:17.887Z,1.21
2023-02-04T09:27:17.871Z,1.21
2023-02-04T09:28:17.983Z,1.63
2023-02-04T09:29:17.882Z,1.93
2023-02-04T09:30:17.877Z,1.93
2023-02-04T09:31:18.060Z,2.15
2023-02-04T09:32:17.870Z,1.95
2023-02-04T09:33:17.893Z,1.82
2023-02-04T09:34:17.875Z,1.75
2023-02-04T09:35:17.877Z,1.67
2023-02-04T09:36:17.889Z,1.59
2023-02-04T09:37:17.880Z,1.54
2023-02-04T09:38:17.879Z,1.44
2023-02-04T09:39:17.876Z,1.34
2023-02-04T09:40:17.877Z,1.34
2023-02-04T09:41:17.905Z,1.3
2023-02-04T09:42:17.891Z,1.24
2023-02-04T09:43:17.881Z,1.17
2023-02-04T09:44:17.885Z,1.09
2023-02-04T09:45:17.865Z,1.12
2023-02-04T09:46:18.042Z,1.12
2023-02-04T09:47:17.877Z,1.13
2023-02-04T09:48:17.890Z,1.12
2023-02-04T09:49:17.884Z,1.09
2023-02-04T09:50:17.874Z,1.09
2023-02-04T09:51:17.897Z,1.08
2023-02-04T09:52:17.879Z,1.07
2023-02-04T09:53:17.878Z,1.07
2023-02-04T09:54:17.876Z,1.03
2023-02-04T09:55:17.866Z,1.05
2023-02-04T09:56:17.889Z,1.05
2023-02-04T09:57:17.873Z,1.02
2023-02-04T09:58:17.875Z,1.06
2023-02-04T09:59:17.868Z,1.11
2023-02-04T10:00:17.861Z,1.11
2023-02-04T10:01:17.978Z,1.11
2023-02-04T10:02:17.980Z,1.06
2023-02-04T10:03:17.900Z,1.15
2023-02-04T10:04:17.869Z,1.14
2023-02-04T10:05:17.849Z,1.12
2023-02-04T10:06:17.892Z,1.19
2023-02-04T10:07:17.861Z,1.27
2023-02-04T10:08:17.869Z,1.27
2023-02-04T10:09:17.846Z,1.31
2023-02-04T10:10:17.852Z,1.32
2023-02-04T10:11:17.855Z,1.26
2023-02-04T10:12:17.849Z,1.26
2023-02-04T10:13:17.842Z,1.29
2023-02-04T10:14:17.843Z,1.29
2023-02-04T10:15:17.843Z,1.3
2023-02-04T10:16:17.891Z,1.33
2023-02-04T10:17:17.841Z,1.32
2023-02-04T10:18:17.839Z,1.28
2023-02-04T10:19:17.843Z,1.28
2023-02-04T10:20:17.842Z,1.31
2023-02-04T10:21:17.862Z,1.39
2023-02-04T10:22:17.842Z,1.38
2023-02-04T10:23:17.834Z,1.45
2023-02-04T10:24:17.839Z,1.57
2023-02-04T10:25:17.850Z,1.55
2023-02-04T10:26:17.898Z,1.56
2023-02-04T10:27:17.849Z,1.56
2023-02-04T10:28:17.997Z,1.55
2023-02-04T10:29:17.849Z,1.59
2023-02-04T10:30:17.848Z,1.59
2023-02-04T10:31:18.030Z,1.48
2023-02-04T10:32:17.837Z,1.44
2023-02-04T10:33:17.854Z,1.4
2023-02-04T10:34:19.054Z,1.4
2023-02-04T10:35:17.841Z,1.44
2023-02-04T10:36:17.874Z,1.45
2023-02-04T10:37:17.864Z,1.42
2023-02-04T10:38:17.859Z,1.32
2023-02-04T10:39:17.848Z,1.26
2023-02-04T10:40:17.961Z,1.26
2023-02-04T10:41:17.884Z,1.23
2023-02-04T10:42:17.857Z,1.26
2023-02-04T10:43:17.924Z,1.21
2023-02-04T10:44:17.867Z,1.11
2023-02-04T10:45:17.877Z,1.07
2023-02-04T10:46:18.009Z,1.08
2023-02-04T10:47:17.869Z,1.04
2023-02-04T10:48:17.872Z,1.04
2023-02-04T10:49:17.860Z,0.97
2023-02-04T10:50:17.868Z,0.97
2023-02-04T10:51:17.881Z,0.87
2023-02-04T10:52:17.975Z,0.84
2023-02-04T10:53:17.853Z,0.73
2023-02-04T10:54:17.875Z,0.72
2023-02-04T10:55:17.859Z,0.66
2023-02-04T10:56:17.883Z,0.8
2023-02-04T10:57:17.867Z,0.98
2023-02-04T10:58:17.867Z,1.05
2023-02-04T10:59:17.851Z,1.11
2023-02-04T11:00:17.944Z,1.11
2023-02-04T11:01:17.891Z,0.54
2023-02-04T11:02:17.862Z,0.53
2023-02-04T11:03:17.919Z,0.46
2023-02-04T11:04:17.863Z,0.36
2023-02-04T11:05:17.872Z,0.36
2023-02-04T11:06:17.881Z,0.86
2023-02-04T11:07:17.859Z,0.91
2023-02-04T11:08:17.867Z,0.9
2023-02-04T11:09:17.864Z,0.91
2023-02-04T11:10:17.984Z,0.91
2023-02-04T11:11:17.884Z,1.03
2023-02-04T11:12:17.925Z,1.02
2023-02-04T11:13:17.867Z,1.04
2023-02-04T11:14:17.859Z,1.06
2023-02-04T11:15:17.859Z,1.1
2023-02-04T11:16:17.950Z,1.14
2023-02-04T11:17:17.849Z,1.14
2023-02-04T11:18:17.850Z,1.35
2023-02-04T11:19:17.850Z,1.31
2023-02-04T11:20:18.072Z,1.21
2023-02-04T11:21:19.400Z,1.15
2023-02-04T11:22:17.849Z,1.22
2023-02-04T11:23:17.854Z,1.21
2023-02-04T11:24:17.849Z,1.19
2023-02-04T11:25:17.857Z,1.21
2023-02-04T11:26:17.868Z,1.24
2023-02-04T11:27:17.844Z,1.2
2023-02-04T11:28:17.921Z,1.2
2023-02-04T11:29:17.844Z,1.26
2023-02-04T11:30:17.855Z,1.26
2023-02-04T11:31:18.077Z,1.2
2023-02-04T11:32:17.842Z,1.22
2023-02-04T11:33:17.847Z,1.3
2023-02-04T11:34:17.849Z,1.28
2023-02-04T11:35:17.848Z,1.2
2023-02-04T11:36:17.865Z,1.17
2023-02-04T11:37:17.847Z,1.13
2023-02-04T11:38:17.841Z,1.15
2023-02-04T11:39:17.846Z,1.21
2023-02-04T11:40:17.854Z,1.21
2023-02-04T11:41:17.852Z,1.53
2023-02-04T11:42:17.840Z,1.7
2023-02-04T11:43:17.835Z,1.63
2023-02-04T11:44:17.843Z,1.64
2023-02-04T11:45:17.860Z,1.5
2023-02-04T11:46:18.038Z,1.42
2023-02-04T11:47:17.859Z,1.39
2023-02-04T11:48:17.849Z,1.31
2023-02-04T11:49:17.856Z,1.41
2023-02-04T11:50:17.846Z,1.41
2023-02-04T11:51:17.873Z,1.48
2023-02-04T11:52:17.858Z,1.54
2023-02-04T11:53:17.856Z,1.7
2023-02-04T11:54:17.838Z,1.78
2023-02-04T11:55:17.859Z,1.91
2023-02-04T11:56:17.885Z,1.81
2023-02-04T11:57:17.860Z,2.1
2023-02-04T11:58:17.862Z,1.86
2023-02-04T11:59:17.861Z,1.76
2023-02-04T12:00:17.864Z,1.76
2023-02-04T12:01:17.876Z,2.22
2023-02-04T12:02:17.994Z,2.44
2023-02-04T12:03:17.856Z,2.81
2023-02-04T12:04:17.863Z,3.88
2023-02-04T12:05:17.869Z,6.08
2023-02-04T12:06:17.860Z,7.7
2023-02-04T12:07:17.865Z,3.04
2023-02-04T12:08:17.858Z,2.6
2023-02-04T12:09:17.867Z,2.47
2023-02-04T12:10:17.875Z,2.47
2023-02-04T12:11:17.865Z,1.31
2023-02-04T12:12:17.881Z,1.15
2023-02-04T12:13:17.849Z,1.23
2023-02-04T12:14:17.840Z,1.2
2023-02-04T12:15:17.950Z,1.48
2023-02-04T12:16:17.933Z,1.62
2023-02-04T12:17:17.864Z,1.65
2023-02-04T12:18:17.863Z,1.56
2023-02-04T12:19:17.846Z,1.56
2023-02-04T12:20:17.859Z,1.58
2023-02-04T12:21:17.879Z,1.2
2023-02-04T12:22:17.851Z,1.16
2023-02-04T12:23:17.855Z,1.13
2023-02-04T12:24:17.859Z,1.12
2023-02-04T12:25:17.869Z,1.12
2023-02-04T12:26:17.858Z,1.08
2023-02-04T12:27:17.846Z,1.08
2023-02-04T12:28:17.881Z,1.08
2023-02-04T12:29:17.843Z,1.19
2023-02-04T12:30:17.850Z,1.04
2023-02-04T12:31:18.102Z,0.83
2023-02-04T12:32:17.845Z,0.71
2023-02-04T12:33:17.843Z,0.65
2023-02-04T12:34:17.881Z,0.6
2023-02-04T12:35:17.845Z,0.52
2023-02-04T12:36:17.864Z,0.44
2023-02-04T12:37:17.844Z,0.37
2023-02-04T12:38:19.250Z,0.34
2023-02-04T12:39:17.851Z,0.33
2023-02-04T12:40:17.860Z,0.33
2023-02-04T12:41:18.029Z,0.37
2023-02-04T12:42:17.841Z,0.7
2023-02-04T12:43:17.843Z,0.72
2023-02-04T12:44:17.846Z,0.67
2023-02-04T12:45:17.858Z,0.67
2023-02-04T12:46:17.957Z,0.56
2023-02-04T12:47:17.842Z,0.48
2023-02-04T12:48:17.985Z,0.47
2023-02-04T12:49:17.841Z,0.42
2023-02-04T12:50:17.857Z,0.42
2023-02-04T12:51:17.874Z,0.32
2023-02-04T12:52:17.854Z,0.35
2023-02-04T12:53:17.846Z,0.4
2023-02-04T12:54:17.849Z,0.49
2023-02-04T12:55:17.836Z,0.67
2023-02-04T12:56:17.877Z,0.87
2023-02-04T12:57:17.840Z,0.87
2023-02-04T12:58:17.856Z,0.96
2023-02-04T12:59:17.856Z,1.01
2023-02-04T13:00:17.850Z,1.01
2023-02-04T13:01:17.915Z,1.26
2023-02-04T13:02:17.940Z,5.38
2023-02-04T13:03:17.857Z,5.89
2023-02-04T13:04:17.850Z,6.7
2023-02-04T13:05:17.857Z,6.9
2023-02-04T13:06:17.891Z,6.79
2023-02-04T13:07:17.857Z,7
2023-02-04T13:08:17.875Z,6.64
2023-02-04T13:09:17.851Z,1.97
2023-02-04T13:10:17.856Z,1.97
2023-02-04T13:11:17.859Z,2.52
2023-02-04T13:12:17.864Z,1.75
2023-02-04T13:13:17.860Z,1.75
2023-02-04T13:14:17.855Z,1.89
2023-02-04T13:15:17.862Z,2.01
2023-02-04T13:16:18.056Z,2.01
2023-02-04T13:17:17.849Z,2.12
2023-02-04T13:18:17.848Z,2.29
2023-02-04T13:19:17.857Z,3.16
2023-02-04T13:20:17.840Z,3.16
2023-02-04T13:21:17.872Z,7.12
2023-02-04T13:22:17.836Z,7.12
2023-02-04T13:23:17.903Z,2.17
2023-02-04T13:24:17.855Z,6.03
2023-02-04T13:25:17.851Z,1.58
2023-02-04T13:26:17.864Z,1.55
2023-02-04T13:27:17.852Z,1.55
2023-02-04T13:28:17.953Z,1.18
2023-02-04T13:29:17.858Z,1.28
2023-02-04T13:30:17.872Z,1.28
2023-02-04T13:31:17.912Z,1.96
2023-02-04T13:32:17.859Z,1.89
2023-02-04T13:33:17.854Z,1.81
2023-02-04T13:34:17.861Z,1.88
2023-02-04T13:35:17.857Z,1
2023-02-04T13:36:17.850Z,1
2023-02-04T13:37:17.842Z,0.93
2023-02-04T13:38:17.840Z,0.82
2023-02-04T13:39:17.842Z,0.8
2023-02-04T13:40:17.849Z,1.01
2023-02-04T13:41:17.883Z,1.27
2023-02-04T13:42:17.859Z,1.29
2023-02-04T13:43:17.841Z,1.39
2023-02-04T13:44:17.848Z,1.48
2023-02-04T13:45:18.091Z,1.61
2023-02-04T13:46:17.860Z,1.42
2023-02-04T13:47:17.845Z,1.19
2023-02-04T13:48:17.842Z,1.17
2023-02-04T13:49:17.846Z,1.21
2023-02-04T13:50:17.866Z,1.3
2023-02-04T13:51:17.866Z,1.47
2023-02-04T13:52:17.844Z,1.63
2023-02-04T13:53:17.845Z,1.83
2023-02-04T13:54:17.860Z,2.92
2023-02-04T13:55:17.853Z,2.03
2023-02-04T13:56:17.891Z,2.07
2023-02-04T13:57:17.846Z,2.71
2023-02-04T13:58:17.862Z,6.83